sensor_id;sensor_type;location;lat;lon;timestamp;P1;durP1;ratioP1;P2;durP2;ratioP2
30707;SDS011;17458;48.958;8.284;2022-07-23T00:01:03;10.93;;;6.70;;
30707;SDS011;17458;48.958;8.284;2022-07-23T00:03:48;9.10;;;7.35;;
30707;SDS011;17458;48.958;8.284;2022-07-23T00:06:32;11.70;;;7.10;;
30707;SDS011;17458;48.958;8.284;2022-07-23T00:09:16;8.68;;;6.25;;
30707;SDS011;17458;48.958;8.284;2022-07-23T00:12:00;8.48;;;6.03;;
30707;SDS011;17458;48.958;8.284;2022-07-23T00:14:44;10.52;;;6.20;;
30707;SDS011;17458;48.958;8.284;2022-07-23T00:17:28;9.20;;;6.15;;
30707;SDS011;17458;48.958;8.284;2022-07-23T00:20:12;12.73;;;5.75;;
30707;SDS011;17458;48.958;8.284;2022-07-23T00:23:00;8.55;;;6.30;;
30707;SDS011;17458;48.958;8.284;2022-07-23T00:26:18;9.18;;;5.97;;
30707;SDS011;17458;48.958;8.284;2022-07-23T00:29:09;9.82;;;6.82;;
30707;SDS011;17458;48.958;8.284;2022-07-23T00:31:56;9.38;;;6.30;;
30707;SDS011;17458;48.958;8.284;2022-07-23T00:34:47;10.38;;;5.90;;
30707;SDS011;17458;48.958;8.284;2022-07-23T00:38:06;14.48;;;5.88;;
30707;SDS011;17458;48.958;8.284;2022-07-23T00:40:53;11.63;;;5.53;;
30707;SDS011;17458;48.958;8.284;2022-07-23T00:43:37;9.60;;;6.25;;
30707;SDS011;17458;48.958;8.284;2022-07-23T00:46:21;9.77;;;5.63;;
30707;SDS011;17458;48.958;8.284;2022-07-23T00:49:05;13.10;;;6.28;;
30707;SDS011;17458;48.958;8.284;2022-07-23T00:51:49;6.43;;;5.55;;
30707;SDS011;17458;48.958;8.284;2022-07-23T00:54:34;9.60;;;5.57;;
30707;SDS011;17458;48.958;8.284;2022-07-23T00:57:19;7.40;;;5.25;;
30707;SDS011;17458;48.958;8.284;2022-07-23T01:00:04;10.02;;;5.40;;
30707;SDS011;17458;48.958;8.284;2022-07-23T01:02:50;7.00;;;5.80;;
30707;SDS011;17458;48.958;8.284;2022-07-23T01:05:34;6.18;;;4.93;;
30707;SDS011;17458;48.958;8.284;2022-07-23T01:08:19;7.63;;;5.22;;
30707;SDS011;17458;48.958;8.284;2022-07-23T01:11:03;6.78;;;4.93;;
30707;SDS011;17458;48.958;8.284;2022-07-23T01:13:48;8.80;;;5.70;;
30707;SDS011;17458;48.958;8.284;2022-07-23T01:16:32;8.80;;;4.57;;
30707;SDS011;17458;48.958;8.284;2022-07-23T01:19:16;6.85;;;5.35;;
30707;SDS011;17458;48.958;8.284;2022-07-23T01:22:01;6.68;;;5.53;;
30707;SDS011;17458;48.958;8.284;2022-07-23T01:24:47;7.25;;;4.88;;
30707;SDS011;17458;48.958;8.284;2022-07-23T01:27:32;6.70;;;4.72;;
30707;SDS011;17458;48.958;8.284;2022-07-23T01:30:20;9.00;;;4.70;;
30707;SDS011;17458;48.958;8.284;2022-07-23T01:33:06;6.20;;;5.60;;
30707;SDS011;17458;48.958;8.284;2022-07-23T01:35:50;6.72;;;5.20;;
30707;SDS011;17458;48.958;8.284;2022-07-23T01:38:39;9.88;;;4.68;;
30707;SDS011;17458;48.958;8.284;2022-07-23T01:41:24;9.65;;;4.88;;
30707;SDS011;17458;48.958;8.284;2022-07-23T01:44:08;8.60;;;4.90;;
30707;SDS011;17458;48.958;8.284;2022-07-23T01:46:55;7.47;;;4.25;;
30707;SDS011;17458;48.958;8.284;2022-07-23T01:49:39;6.22;;;4.13;;
30707;SDS011;17458;48.958;8.284;2022-07-23T01:52:35;4.47;;;3.72;;
30707;SDS011;17458;48.958;8.284;2022-07-23T01:55:29;5.63;;;4.35;;
30707;SDS011;17458;48.958;8.284;2022-07-23T01:58:36;4.90;;;3.58;;
30707;SDS011;17458;48.958;8.284;2022-07-23T02:01:21;10.77;;;4.30;;
30707;SDS011;17458;48.958;8.284;2022-07-23T02:04:05;13.30;;;4.57;;
30707;SDS011;17458;48.958;8.284;2022-07-23T02:06:55;5.00;;;4.47;;
30707;SDS011;17458;48.958;8.284;2022-07-23T02:09:44;7.50;;;4.25;;
30707;SDS011;17458;48.958;8.284;2022-07-23T02:12:34;5.18;;;3.97;;
30707;SDS011;17458;48.958;8.284;2022-07-23T02:15:19;9.80;;;4.80;;
30707;SDS011;17458;48.958;8.284;2022-07-23T02:18:04;6.53;;;4.15;;
30707;SDS011;17458;48.958;8.284;2022-07-23T02:20:49;5.53;;;4.25;;
30707;SDS011;17458;48.958;8.284;2022-07-23T02:23:33;5.70;;;4.47;;
30707;SDS011;17458;48.958;8.284;2022-07-23T02:26:17;6.95;;;3.70;;
30707;SDS011;17458;48.958;8.284;2022-07-23T02:29:01;9.27;;;4.72;;
30707;SDS011;17458;48.958;8.284;2022-07-23T02:31:47;8.40;;;3.55;;
30707;SDS011;17458;48.958;8.284;2022-07-23T02:34:31;9.05;;;4.53;;
30707;SDS011;17458;48.958;8.284;2022-07-23T02:37:15;5.78;;;4.47;;
30707;SDS011;17458;48.958;8.284;2022-07-23T02:39:59;5.80;;;4.43;;
30707;SDS011;17458;48.958;8.284;2022-07-23T02:42:44;5.65;;;4.35;;
30707;SDS011;17458;48.958;8.284;2022-07-23T02:45:27;6.63;;;3.83;;
30707;SDS011;17458;48.958;8.284;2022-07-23T02:48:12;7.40;;;4.22;;
30707;SDS011;17458;48.958;8.284;2022-07-23T02:51:00;6.80;;;4.28;;
30707;SDS011;17458;48.958;8.284;2022-07-23T02:53:51;10.82;;;3.70;;
30707;SDS011;17458;48.958;8.284;2022-07-23T02:56:36;4.40;;;4.00;;
30707;SDS011;17458;48.958;8.284;2022-07-23T02:59:20;5.38;;;4.10;;
30707;SDS011;17458;48.958;8.284;2022-07-23T03:02:19;8.38;;;5.13;;
30707;SDS011;17458;48.958;8.284;2022-07-23T03:05:03;5.05;;;4.00;;
30707;SDS011;17458;48.958;8.284;2022-07-23T03:07:52;14.15;;;4.07;;
30707;SDS011;17458;48.958;8.284;2022-07-23T03:10:37;6.47;;;3.72;;
30707;SDS011;17458;48.958;8.284;2022-07-23T03:13:21;3.83;;;3.42;;
30707;SDS011;17458;48.958;8.284;2022-07-23T03:16:05;7.95;;;3.72;;
30707;SDS011;17458;48.958;8.284;2022-07-23T03:18:50;6.07;;;4.18;;
30707;SDS011;17458;48.958;8.284;2022-07-23T03:21:34;6.30;;;3.70;;
30707;SDS011;17458;48.958;8.284;2022-07-23T03:24:19;5.38;;;3.92;;
30707;SDS011;17458;48.958;8.284;2022-07-23T03:27:03;8.13;;;4.00;;
30707;SDS011;17458;48.958;8.284;2022-07-23T03:29:47;5.15;;;3.42;;
30707;SDS011;17458;48.958;8.284;2022-07-23T03:32:32;5.78;;;3.65;;
30707;SDS011;17458;48.958;8.284;2022-07-23T03:35:16;6.80;;;3.67;;
30707;SDS011;17458;48.958;8.284;2022-07-23T03:38:08;7.22;;;4.32;;
30707;SDS011;17458;48.958;8.284;2022-07-23T03:40:52;11.57;;;3.95;;
30707;SDS011;17458;48.958;8.284;2022-07-23T03:43:37;5.15;;;4.00;;
30707;SDS011;17458;48.958;8.284;2022-07-23T03:46:20;8.98;;;4.60;;
30707;SDS011;17458;48.958;8.284;2022-07-23T03:49:05;7.43;;;4.28;;
30707;SDS011;17458;48.958;8.284;2022-07-23T03:51:49;6.85;;;4.35;;
30707;SDS011;17458;48.958;8.284;2022-07-23T03:54:33;6.78;;;4.32;;
30707;SDS011;17458;48.958;8.284;2022-07-23T03:57:19;7.82;;;4.25;;
30707;SDS011;17458;48.958;8.284;2022-07-23T04:00:03;10.10;;;4.82;;
30707;SDS011;17458;48.958;8.284;2022-07-23T04:02:57;10.75;;;5.70;;
30707;SDS011;17458;48.958;8.284;2022-07-23T04:05:41;5.03;;;3.85;;
30707;SDS011;17458;48.958;8.284;2022-07-23T04:08:29;7.22;;;4.57;;
30707;SDS011;17458;48.958;8.284;2022-07-23T04:11:15;8.63;;;4.60;;
30707;SDS011;17458;48.958;8.284;2022-07-23T04:14:00;6.70;;;4.35;;
30707;SDS011;17458;48.958;8.284;2022-07-23T04:16:44;6.10;;;4.15;;
30707;SDS011;17458;48.958;8.284;2022-07-23T04:19:28;8.90;;;4.45;;
30707;SDS011;17458;48.958;8.284;2022-07-23T04:22:20;10.07;;;4.20;;
30707;SDS011;17458;48.958;8.284;2022-07-23T04:25:04;7.95;;;4.65;;
30707;SDS011;17458;48.958;8.284;2022-07-23T04:27:48;10.95;;;4.30;;
30707;SDS011;17458;48.958;8.284;2022-07-23T04:30:32;5.60;;;4.43;;
30707;SDS011;17458;48.958;8.284;2022-07-23T04:33:19;4.65;;;3.80;;
30707;SDS011;17458;48.958;8.284;2022-07-23T04:36:06;6.45;;;3.83;;
30707;SDS011;17458;48.958;8.284;2022-07-23T04:38:50;6.78;;;3.90;;
30707;SDS011;17458;48.958;8.284;2022-07-23T04:41:35;4.32;;;3.85;;
30707;SDS011;17458;48.958;8.284;2022-07-23T04:44:19;11.38;;;4.55;;
30707;SDS011;17458;48.958;8.284;2022-07-23T04:47:04;8.02;;;4.05;;
30707;SDS011;17458;48.958;8.284;2022-07-23T04:49:48;6.80;;;3.97;;
30707;SDS011;17458;48.958;8.284;2022-07-23T04:52:33;6.97;;;4.38;;
30707;SDS011;17458;48.958;8.284;2022-07-23T04:55:17;5.18;;;4.47;;
30707;SDS011;17458;48.958;8.284;2022-07-23T04:58:02;5.80;;;3.72;;
30707;SDS011;17458;48.958;8.284;2022-07-23T05:00:46;7.28;;;4.00;;
30707;SDS011;17458;48.958;8.284;2022-07-23T05:03:31;7.03;;;4.40;;
30707;SDS011;17458;48.958;8.284;2022-07-23T05:06:15;5.93;;;4.15;;
30707;SDS011;17458;48.958;8.284;2022-07-23T05:08:59;7.22;;;4.78;;
30707;SDS011;17458;48.958;8.284;2022-07-23T05:11:43;5.32;;;4.10;;
30707;SDS011;17458;48.958;8.284;2022-07-23T05:14:27;6.00;;;4.07;;
30707;SDS011;17458;48.958;8.284;2022-07-23T05:17:12;6.85;;;4.05;;
30707;SDS011;17458;48.958;8.284;2022-07-23T05:19:56;5.82;;;4.38;;
30707;SDS011;17458;48.958;8.284;2022-07-23T05:22:40;8.50;;;4.28;;
30707;SDS011;17458;48.958;8.284;2022-07-23T05:25:37;6.00;;;4.95;;
30707;SDS011;17458;48.958;8.284;2022-07-23T05:28:27;10.18;;;5.45;;
30707;SDS011;17458;48.958;8.284;2022-07-23T05:31:11;8.60;;;5.75;;
30707;SDS011;17458;48.958;8.284;2022-07-23T05:33:56;5.32;;;4.82;;
30707;SDS011;17458;48.958;8.284;2022-07-23T05:36:41;8.82;;;4.63;;
30707;SDS011;17458;48.958;8.284;2022-07-23T05:39:25;6.70;;;4.43;;
30707;SDS011;17458;48.958;8.284;2022-07-23T05:42:10;8.82;;;4.88;;
30707;SDS011;17458;48.958;8.284;2022-07-23T05:44:54;7.57;;;4.15;;
30707;SDS011;17458;48.958;8.284;2022-07-23T05:47:48;14.98;;;4.75;;
30707;SDS011;17458;48.958;8.284;2022-07-23T05:50:41;10.32;;;4.25;;
30707;SDS011;17458;48.958;8.284;2022-07-23T05:53:37;11.88;;;4.97;;
30707;SDS011;17458;48.958;8.284;2022-07-23T05:56:33;4.90;;;3.38;;
30707;SDS011;17458;48.958;8.284;2022-07-23T05:59:17;5.82;;;5.18;;
30707;SDS011;17458;48.958;8.284;2022-07-23T06:02:02;7.18;;;4.93;;
30707;SDS011;17458;48.958;8.284;2022-07-23T06:04:46;6.70;;;4.72;;
30707;SDS011;17458;48.958;8.284;2022-07-23T06:07:39;5.45;;;3.97;;
30707;SDS011;17458;48.958;8.284;2022-07-23T06:10:23;5.65;;;4.30;;
30707;SDS011;17458;48.958;8.284;2022-07-23T06:13:07;6.63;;;4.35;;
30707;SDS011;17458;48.958;8.284;2022-07-23T06:15:51;8.73;;;4.68;;
30707;SDS011;17458;48.958;8.284;2022-07-23T06:18:37;13.30;;;5.07;;
30707;SDS011;17458;48.958;8.284;2022-07-23T06:21:21;6.00;;;4.53;;
30707;SDS011;17458;48.958;8.284;2022-07-23T06:24:05;6.75;;;4.32;;
30707;SDS011;17458;48.958;8.284;2022-07-23T06:26:49;20.42;;;6.18;;
30707;SDS011;17458;48.958;8.284;2022-07-23T06:29:33;8.43;;;6.03;;
30707;SDS011;17458;48.958;8.284;2022-07-23T06:32:17;6.18;;;5.07;;
30707;SDS011;17458;48.958;8.284;2022-07-23T06:35:01;7.78;;;4.95;;
30707;SDS011;17458;48.958;8.284;2022-07-23T06:37:45;10.55;;;5.15;;
30707;SDS011;17458;48.958;8.284;2022-07-23T06:40:29;12.57;;;5.93;;
30707;SDS011;17458;48.958;8.284;2022-07-23T06:43:13;9.07;;;5.30;;
30707;SDS011;17458;48.958;8.284;2022-07-23T06:45:57;13.90;;;5.82;;
30707;SDS011;17458;48.958;8.284;2022-07-23T06:48:42;11.07;;;5.43;;
30707;SDS011;17458;48.958;8.284;2022-07-23T06:51:26;10.60;;;5.50;;
30707;SDS011;17458;48.958;8.284;2022-07-23T06:54:10;9.98;;;5.00;;
30707;SDS011;17458;48.958;8.284;2022-07-23T06:56:54;7.70;;;5.13;;
30707;SDS011;17458;48.958;8.284;2022-07-23T06:59:38;8.65;;;5.43;;
30707;SDS011;17458;48.958;8.284;2022-07-23T07:02:24;10.32;;;5.35;;
30707;SDS011;17458;48.958;8.284;2022-07-23T07:05:08;9.65;;;6.13;;
30707;SDS011;17458;48.958;8.284;2022-07-23T07:07:54;17.52;;;5.55;;
30707;SDS011;17458;48.958;8.284;2022-07-23T07:10:38;11.48;;;5.57;;
30707;SDS011;17458;48.958;8.284;2022-07-23T07:13:22;8.52;;;5.85;;
30707;SDS011;17458;48.958;8.284;2022-07-23T07:16:06;6.57;;;5.15;;
30707;SDS011;17458;48.958;8.284;2022-07-23T07:18:50;12.85;;;6.25;;
30707;SDS011;17458;48.958;8.284;2022-07-23T07:21:34;12.48;;;6.28;;
30707;SDS011;17458;48.958;8.284;2022-07-23T07:24:19;8.75;;;6.13;;
30707;SDS011;17458;48.958;8.284;2022-07-23T07:27:03;14.80;;;5.82;;
30707;SDS011;17458;48.958;8.284;2022-07-23T07:29:47;6.30;;;5.45;;
30707;SDS011;17458;48.958;8.284;2022-07-23T07:32:31;11.95;;;6.25;;
30707;SDS011;17458;48.958;8.284;2022-07-23T07:35:20;7.57;;;4.82;;
30707;SDS011;17458;48.958;8.284;2022-07-23T07:38:04;11.15;;;5.90;;
30707;SDS011;17458;48.958;8.284;2022-07-23T07:40:48;9.85;;;5.20;;
30707;SDS011;17458;48.958;8.284;2022-07-23T07:43:32;7.57;;;5.22;;
30707;SDS011;17458;48.958;8.284;2022-07-23T07:46:16;8.48;;;5.93;;
30707;SDS011;17458;48.958;8.284;2022-07-23T07:49:00;8.48;;;5.32;;
30707;SDS011;17458;48.958;8.284;2022-07-23T07:51:44;13.55;;;6.22;;
30707;SDS011;17458;48.958;8.284;2022-07-23T07:54:27;6.68;;;5.07;;
30707;SDS011;17458;48.958;8.284;2022-07-23T07:57:11;14.40;;;5.70;;
30707;SDS011;17458;48.958;8.284;2022-07-23T07:59:55;6.72;;;5.03;;
30707;SDS011;17458;48.958;8.284;2022-07-23T08:02:43;6.28;;;4.85;;
30707;SDS011;17458;48.958;8.284;2022-07-23T08:05:29;7.85;;;5.88;;
30707;SDS011;17458;48.958;8.284;2022-07-23T08:08:14;9.93;;;6.05;;
30707;SDS011;17458;48.958;8.284;2022-07-23T08:10:58;8.20;;;5.90;;
30707;SDS011;17458;48.958;8.284;2022-07-23T08:13:42;9.43;;;5.25;;
30707;SDS011;17458;48.958;8.284;2022-07-23T08:16:28;17.10;;;5.75;;
30707;SDS011;17458;48.958;8.284;2022-07-23T08:19:12;8.77;;;5.65;;
30707;SDS011;17458;48.958;8.284;2022-07-23T08:21:56;11.65;;;4.97;;
30707;SDS011;17458;48.958;8.284;2022-07-23T08:24:40;7.20;;;4.72;;
30707;SDS011;17458;48.958;8.284;2022-07-23T08:27:24;6.10;;;4.97;;
30707;SDS011;17458;48.958;8.284;2022-07-23T08:30:08;11.73;;;5.60;;
30707;SDS011;17458;48.958;8.284;2022-07-23T08:32:54;8.93;;;5.50;;
30707;SDS011;17458;48.958;8.284;2022-07-23T08:35:41;11.35;;;5.88;;
30707;SDS011;17458;48.958;8.284;2022-07-23T08:38:32;11.60;;;6.05;;
30707;SDS011;17458;48.958;8.284;2022-07-23T08:41:17;7.05;;;5.78;;
30707;SDS011;17458;48.958;8.284;2022-07-23T08:44:01;7.88;;;5.07;;
30707;SDS011;17458;48.958;8.284;2022-07-23T08:46:45;8.40;;;5.50;;
30707;SDS011;17458;48.958;8.284;2022-07-23T08:49:30;10.63;;;6.05;;
30707;SDS011;17458;48.958;8.284;2022-07-23T08:52:14;9.32;;;5.40;;
30707;SDS011;17458;48.958;8.284;2022-07-23T08:54:58;9.02;;;6.03;;
30707;SDS011;17458;48.958;8.284;2022-07-23T08:57:42;9.65;;;5.63;;
30707;SDS011;17458;48.958;8.284;2022-07-23T09:00:26;8.10;;;5.38;;
30707;SDS011;17458;48.958;8.284;2022-07-23T09:03:18;10.60;;;5.93;;
30707;SDS011;17458;48.958;8.284;2022-07-23T09:06:12;6.57;;;5.32;;
30707;SDS011;17458;48.958;8.284;2022-07-23T09:08:56;13.35;;;6.32;;
30707;SDS011;17458;48.958;8.284;2022-07-23T09:11:40;9.05;;;6.05;;
30707;SDS011;17458;48.958;8.284;2022-07-23T09:17:25;9.30;;;5.95;;
30707;SDS011;17458;48.958;8.284;2022-07-23T09:20:13;11.95;;;5.80;;
30707;SDS011;17458;48.958;8.284;2022-07-23T09:22:59;9.43;;;5.75;;
30707;SDS011;17458;48.958;8.284;2022-07-23T09:25:43;11.02;;;5.72;;
30707;SDS011;17458;48.958;8.284;2022-07-23T09:28:27;11.20;;;6.32;;
30707;SDS011;17458;48.958;8.284;2022-07-23T09:31:11;12.50;;;5.10;;
30707;SDS011;17458;48.958;8.284;2022-07-23T09:34:02;8.23;;;5.57;;
30707;SDS011;17458;48.958;8.284;2022-07-23T09:36:52;9.32;;;7.20;;
30707;SDS011;17458;48.958;8.284;2022-07-23T09:39:41;7.57;;;5.43;;
30707;SDS011;17458;48.958;8.284;2022-07-23T09:42:26;11.00;;;5.70;;
30707;SDS011;17458;48.958;8.284;2022-07-23T09:45:10;13.27;;;5.45;;
30707;SDS011;17458;48.958;8.284;2022-07-23T09:48:14;9.77;;;5.15;;
30707;SDS011;17458;48.958;8.284;2022-07-23T09:51:02;9.38;;;5.85;;
30707;SDS011;17458;48.958;8.284;2022-07-23T09:53:47;9.55;;;5.55;;
30707;SDS011;17458;48.958;8.284;2022-07-23T09:56:31;5.95;;;4.50;;
30707;SDS011;17458;48.958;8.284;2022-07-23T09:59:18;11.98;;;5.80;;
30707;SDS011;17458;48.958;8.284;2022-07-23T10:02:09;5.47;;;4.63;;
30707;SDS011;17458;48.958;8.284;2022-07-23T10:05:21;7.40;;;5.07;;
30707;SDS011;17458;48.958;8.284;2022-07-23T10:08:30;14.73;;;6.85;;
30707;SDS011;17458;48.958;8.284;2022-07-23T10:11:36;8.95;;;5.68;;
30707;SDS011;17458;48.958;8.284;2022-07-23T10:14:29;9.65;;;4.97;;
30707;SDS011;17458;48.958;8.284;2022-07-23T10:17:19;13.13;;;5.03;;
30707;SDS011;17458;48.958;8.284;2022-07-23T10:20:03;7.03;;;4.70;;
30707;SDS011;17458;48.958;8.284;2022-07-23T10:26:12;6.75;;;5.03;;
30707;SDS011;17458;48.958;8.284;2022-07-23T10:29:10;7.22;;;4.80;;
30707;SDS011;17458;48.958;8.284;2022-07-23T10:32:17;8.20;;;5.30;;
30707;SDS011;17458;48.958;8.284;2022-07-23T10:38:51;7.97;;;4.82;;
30707;SDS011;17458;48.958;8.284;2022-07-23T10:41:32;8.30;;;4.72;;
30707;SDS011;17458;48.958;8.284;2022-07-23T10:44:17;7.82;;;5.07;;
30707;SDS011;17458;48.958;8.284;2022-07-23T10:47:04;8.68;;;4.63;;
30707;SDS011;17458;48.958;8.284;2022-07-23T10:49:48;7.47;;;4.60;;
30707;SDS011;17458;48.958;8.284;2022-07-23T10:52:32;7.57;;;4.38;;
30707;SDS011;17458;48.958;8.284;2022-07-23T10:58:03;5.80;;;5.18;;
30707;SDS011;17458;48.958;8.284;2022-07-23T11:00:49;8.25;;;4.35;;
30707;SDS011;17458;48.958;8.284;2022-07-23T11:03:34;6.13;;;4.75;;
30707;SDS011;17458;48.958;8.284;2022-07-23T11:06:24;8.88;;;4.03;;
30707;SDS011;17458;48.958;8.284;2022-07-23T11:09:29;6.80;;;4.78;;
30707;SDS011;17458;48.958;8.284;2022-07-23T11:15:13;5.90;;;4.85;;
30707;SDS011;17458;48.958;8.284;2022-07-23T11:17:59;7.10;;;4.25;;
30707;SDS011;17458;48.958;8.284;2022-07-23T11:20:43;7.22;;;5.05;;
30707;SDS011;17458;48.958;8.284;2022-07-23T11:23:57;8.77;;;5.10;;
30707;SDS011;17458;48.958;8.284;2022-07-23T11:32:19;10.68;;;5.55;;
30707;SDS011;17458;48.958;8.284;2022-07-23T11:35:26;6.53;;;3.80;;
30707;SDS011;17458;48.958;8.284;2022-07-23T11:40:58;5.60;;;4.32;;
30707;SDS011;17458;48.958;8.284;2022-07-23T11:43:42;8.85;;;5.88;;
30707;SDS011;17458;48.958;8.284;2022-07-23T11:46:26;5.97;;;5.10;;
30707;SDS011;17458;48.958;8.284;2022-07-23T11:49:10;9.30;;;5.57;;
30707;SDS011;17458;48.958;8.284;2022-07-23T11:52:11;8.05;;;5.45;;
30707;SDS011;17458;48.958;8.284;2022-07-23T11:54:58;7.35;;;5.40;;
30707;SDS011;17458;48.958;8.284;2022-07-23T11:57:47;10.00;;;5.55;;
30707;SDS011;17458;48.958;8.284;2022-07-23T12:00:32;10.93;;;5.03;;
30707;SDS011;17458;48.958;8.284;2022-07-23T12:03:17;6.40;;;4.82;;
30707;SDS011;17458;48.958;8.284;2022-07-23T12:06:01;8.70;;;4.72;;
30707;SDS011;17458;48.958;8.284;2022-07-23T12:08:45;7.00;;;4.53;;
30707;SDS011;17458;48.958;8.284;2022-07-23T12:11:29;7.75;;;5.15;;
30707;SDS011;17458;48.958;8.284;2022-07-23T12:14:13;21.40;;;5.13;;
30707;SDS011;17458;48.958;8.284;2022-07-23T12:17:08;14.65;;;5.68;;
30707;SDS011;17458;48.958;8.284;2022-07-23T12:19:52;6.22;;;5.05;;
30707;SDS011;17458;48.958;8.284;2022-07-23T12:22:45;6.53;;;4.68;;
30707;SDS011;17458;48.958;8.284;2022-07-23T12:25:33;5.15;;;4.10;;
30707;SDS011;17458;48.958;8.284;2022-07-23T12:28:20;8.43;;;5.20;;
30707;SDS011;17458;48.958;8.284;2022-07-23T12:31:06;7.07;;;5.28;;
30707;SDS011;17458;48.958;8.284;2022-07-23T12:33:50;6.75;;;4.72;;
30707;SDS011;17458;48.958;8.284;2022-07-23T12:36:38;6.45;;;5.13;;
30707;SDS011;17458;48.958;8.284;2022-07-23T12:39:29;7.05;;;5.10;;
30707;SDS011;17458;48.958;8.284;2022-07-23T12:42:16;7.78;;;4.70;;
30707;SDS011;17458;48.958;8.284;2022-07-23T12:45:07;5.05;;;4.55;;
30707;SDS011;17458;48.958;8.284;2022-07-23T12:47:53;6.80;;;5.10;;
30707;SDS011;17458;48.958;8.284;2022-07-23T12:50:43;8.45;;;5.50;;
30707;SDS011;17458;48.958;8.284;2022-07-23T12:53:40;9.93;;;5.07;;
30707;SDS011;17458;48.958;8.284;2022-07-23T12:56:33;8.52;;;5.50;;
30707;SDS011;17458;48.958;8.284;2022-07-23T12:59:18;10.50;;;4.75;;
30707;SDS011;17458;48.958;8.284;2022-07-23T13:02:02;6.40;;;5.05;;
30707;SDS011;17458;48.958;8.284;2022-07-23T13:04:46;9.27;;;4.80;;
30707;SDS011;17458;48.958;8.284;2022-07-23T13:07:30;7.35;;;5.10;;
30707;SDS011;17458;48.958;8.284;2022-07-23T13:10:14;7.95;;;5.32;;
30707;SDS011;17458;48.958;8.284;2022-07-23T13:12:58;5.88;;;5.22;;
30707;SDS011;17458;48.958;8.284;2022-07-23T13:15:42;6.75;;;4.88;;
30707;SDS011;17458;48.958;8.284;2022-07-23T13:18:27;6.32;;;4.82;;
30707;SDS011;17458;48.958;8.284;2022-07-23T13:21:12;7.93;;;4.50;;
30707;SDS011;17458;48.958;8.284;2022-07-23T13:23:56;7.18;;;4.53;;
30707;SDS011;17458;48.958;8.284;2022-07-23T13:26:40;9.25;;;5.22;;
30707;SDS011;17458;48.958;8.284;2022-07-23T13:29:25;7.68;;;4.68;;
30707;SDS011;17458;48.958;8.284;2022-07-23T13:32:10;7.82;;;4.70;;
30707;SDS011;17458;48.958;8.284;2022-07-23T13:34:56;6.97;;;4.47;;
30707;SDS011;17458;48.958;8.284;2022-07-23T13:37:40;10.93;;;4.53;;
30707;SDS011;17458;48.958;8.284;2022-07-23T13:40:28;5.80;;;3.97;;
30707;SDS011;17458;48.958;8.284;2022-07-23T13:43:13;9.48;;;5.05;;
30707;SDS011;17458;48.958;8.284;2022-07-23T13:45:59;6.25;;;4.15;;
30707;SDS011;17458;48.958;8.284;2022-07-23T13:48:43;5.25;;;4.05;;
30707;SDS011;17458;48.958;8.284;2022-07-23T13:51:27;5.72;;;4.13;;
30707;SDS011;17458;48.958;8.284;2022-07-23T13:54:11;7.22;;;4.13;;
30707;SDS011;17458;48.958;8.284;2022-07-23T13:56:55;6.53;;;4.30;;
30707;SDS011;17458;48.958;8.284;2022-07-23T13:59:40;8.85;;;4.63;;
30707;SDS011;17458;48.958;8.284;2022-07-23T14:02:24;6.60;;;4.53;;
30707;SDS011;17458;48.958;8.284;2022-07-23T14:05:09;7.32;;;4.28;;
30707;SDS011;17458;48.958;8.284;2022-07-23T14:07:54;6.43;;;4.53;;
30707;SDS011;17458;48.958;8.284;2022-07-23T14:10:39;6.03;;;4.40;;
30707;SDS011;17458;48.958;8.284;2022-07-23T14:13:23;8.75;;;5.32;;
30707;SDS011;17458;48.958;8.284;2022-07-23T14:16:07;8.20;;;5.07;;
30707;SDS011;17458;48.958;8.284;2022-07-23T14:18:51;8.02;;;5.03;;
30707;SDS011;17458;48.958;8.284;2022-07-23T14:21:36;8.52;;;4.28;;
30707;SDS011;17458;48.958;8.284;2022-07-23T14:24:20;8.25;;;4.40;;
30707;SDS011;17458;48.958;8.284;2022-07-23T14:27:04;6.30;;;4.18;;
30707;SDS011;17458;48.958;8.284;2022-07-23T14:29:48;5.68;;;4.43;;
30707;SDS011;17458;48.958;8.284;2022-07-23T14:32:32;7.38;;;4.82;;
30707;SDS011;17458;48.958;8.284;2022-07-23T14:35:16;5.65;;;5.13;;
30707;SDS011;17458;48.958;8.284;2022-07-23T14:38:00;5.78;;;4.82;;
30707;SDS011;17458;48.958;8.284;2022-07-23T14:40:44;7.65;;;4.60;;
30707;SDS011;17458;48.958;8.284;2022-07-23T14:43:28;7.75;;;5.10;;
30707;SDS011;17458;48.958;8.284;2022-07-23T14:46:12;7.25;;;4.72;;
30707;SDS011;17458;48.958;8.284;2022-07-23T14:48:57;8.20;;;5.40;;
30707;SDS011;17458;48.958;8.284;2022-07-23T14:51:41;5.47;;;4.75;;
30707;SDS011;17458;48.958;8.284;2022-07-23T14:54:26;7.55;;;4.78;;
30707;SDS011;17458;48.958;8.284;2022-07-23T14:57:10;5.72;;;4.47;;
30707;SDS011;17458;48.958;8.284;2022-07-23T14:59:54;13.15;;;5.00;;
30707;SDS011;17458;48.958;8.284;2022-07-23T15:02:38;8.45;;;5.00;;
30707;SDS011;17458;48.958;8.284;2022-07-23T15:05:22;12.88;;;5.10;;
30707;SDS011;17458;48.958;8.284;2022-07-23T15:08:06;8.73;;;5.10;;
30707;SDS011;17458;48.958;8.284;2022-07-23T15:10:51;10.20;;;4.70;;
30707;SDS011;17458;48.958;8.284;2022-07-23T15:13:35;8.25;;;5.30;;
30707;SDS011;17458;48.958;8.284;2022-07-23T15:16:20;11.23;;;5.40;;
30707;SDS011;17458;48.958;8.284;2022-07-23T15:19:05;7.70;;;4.72;;
30707;SDS011;17458;48.958;8.284;2022-07-23T15:21:49;7.28;;;4.88;;
30707;SDS011;17458;48.958;8.284;2022-07-23T15:24:33;7.95;;;4.85;;
30707;SDS011;17458;48.958;8.284;2022-07-23T15:27:17;5.78;;;5.20;;
30707;SDS011;17458;48.958;8.284;2022-07-23T15:30:02;6.53;;;4.35;;
30707;SDS011;17458;48.958;8.284;2022-07-23T15:32:47;7.25;;;5.22;;
30707;SDS011;17458;48.958;8.284;2022-07-23T15:35:31;5.15;;;4.65;;
30707;SDS011;17458;48.958;8.284;2022-07-23T15:38:16;7.57;;;4.78;;
30707;SDS011;17458;48.958;8.284;2022-07-23T15:41:00;7.78;;;4.97;;
30707;SDS011;17458;48.958;8.284;2022-07-23T15:43:43;6.15;;;5.22;;
30707;SDS011;17458;48.958;8.284;2022-07-23T15:46:28;6.85;;;5.28;;
30707;SDS011;17458;48.958;8.284;2022-07-23T15:49:13;7.85;;;4.85;;
30707;SDS011;17458;48.958;8.284;2022-07-23T15:51:57;7.43;;;4.50;;
30707;SDS011;17458;48.958;8.284;2022-07-23T15:54:42;6.13;;;4.90;;
30707;SDS011;17458;48.958;8.284;2022-07-23T15:57:26;7.20;;;4.80;;
30707;SDS011;17458;48.958;8.284;2022-07-23T16:00:10;10.98;;;4.90;;
30707;SDS011;17458;48.958;8.284;2022-07-23T16:02:55;9.32;;;5.00;;
30707;SDS011;17458;48.958;8.284;2022-07-23T16:05:40;11.68;;;4.78;;
30707;SDS011;17458;48.958;8.284;2022-07-23T16:08:25;7.78;;;4.30;;
30707;SDS011;17458;48.958;8.284;2022-07-23T16:11:08;5.93;;;5.15;;
30707;SDS011;17458;48.958;8.284;2022-07-23T16:13:52;12.07;;;5.50;;
30707;SDS011;17458;48.958;8.284;2022-07-23T16:16:36;8.32;;;5.10;;
30707;SDS011;17458;48.958;8.284;2022-07-23T16:19:21;11.50;;;5.28;;
30707;SDS011;17458;48.958;8.284;2022-07-23T16:22:05;7.95;;;5.05;;
30707;SDS011;17458;48.958;8.284;2022-07-23T16:24:49;7.93;;;5.13;;
30707;SDS011;17458;48.958;8.284;2022-07-23T16:27:34;6.07;;;5.47;;
30707;SDS011;17458;48.958;8.284;2022-07-23T16:30:19;6.63;;;4.55;;
30707;SDS011;17458;48.958;8.284;2022-07-23T16:33:03;6.70;;;5.15;;
30707;SDS011;17458;48.958;8.284;2022-07-23T16:35:47;11.95;;;4.70;;
30707;SDS011;17458;48.958;8.284;2022-07-23T16:38:32;11.05;;;5.35;;
30707;SDS011;17458;48.958;8.284;2022-07-23T16:41:18;9.23;;;4.43;;
30707;SDS011;17458;48.958;8.284;2022-07-23T16:44:02;8.05;;;4.70;;
30707;SDS011;17458;48.958;8.284;2022-07-23T16:46:47;9.02;;;5.57;;
30707;SDS011;17458;48.958;8.284;2022-07-23T16:49:31;10.65;;;5.03;;
30707;SDS011;17458;48.958;8.284;2022-07-23T16:52:17;5.43;;;4.30;;
30707;SDS011;17458;48.958;8.284;2022-07-23T16:55:05;6.82;;;4.97;;
30707;SDS011;17458;48.958;8.284;2022-07-23T16:57:49;6.50;;;4.60;;
30707;SDS011;17458;48.958;8.284;2022-07-23T17:00:33;7.50;;;4.90;;
30707;SDS011;17458;48.958;8.284;2022-07-23T17:03:17;6.72;;;4.60;;